createdAt,value
2023-04-15T00:01:45.388Z,8.47
2023-04-15T00:04:13.029Z,8.26
2023-04-15T00:06:40.920Z,8.41
2023-04-15T00:09:08.656Z,7.99
2023-04-15T00:11:36.151Z,7.78
2023-04-15T00:14:03.635Z,7.62
2023-04-15T00:16:31.276Z,7.57
2023-04-15T00:19:00.438Z,7.53
2023-04-15T00:21:28.986Z,7.40
2023-04-15T00:23:56.651Z,7.17
2023-04-15T00:26:24.079Z,7.06
2023-04-15T00:28:51.770Z,7.03
2023-04-15T00:31:19.316Z,6.83
2023-04-15T00:33:46.806Z,6.92
2023-04-15T00:36:16.216Z,7.04
2023-04-15T00:38:43.633Z,7.17
2023-04-15T00:41:12.140Z,7.27
2023-04-15T00:43:39.593Z,7.10
2023-04-15T00:46:08.276Z,7.16
2023-04-15T00:48:36.826Z,7.02
2023-04-15T00:51:04.553Z,6.93
2023-04-15T00:53:33.394Z,6.90
2023-04-15T00:56:00.980Z,6.77
2023-04-15T00:58:28.945Z,6.94
2023-04-15T01:00:58.096Z,6.91
2023-04-15T01:03:25.761Z,6.90
2023-04-15T01:05:58.171Z,6.99
2023-04-15T01:08:28.431Z,6.86
2023-04-15T01:10:58.325Z,6.98
2023-04-15T01:13:26.583Z,7.13
2023-04-15T01:15:54.660Z,6.96
2023-04-15T01:18:23.236Z,6.95
2023-04-15T01:20:50.947Z,7.30
2023-04-15T01:23:18.620Z,7.40
2023-04-15T01:25:48.142Z,7.48
2023-04-15T01:28:15.989Z,7.23
2023-04-15T01:30:44.536Z,7.79
2023-04-15T01:33:12.146Z,7.95
2023-04-15T01:35:39.722Z,8.15
2023-04-15T01:38:11.429Z,8.07
2023-04-15T01:40:39.370Z,8.14
2023-04-15T01:43:08.165Z,7.67
2023-04-15T01:45:35.610Z,7.60
2023-04-15T01:48:03.110Z,7.45
2023-04-15T01:50:31.417Z,7.16
2023-04-15T01:52:58.924Z,7.03
2023-04-15T01:55:27.010Z,7.13
2023-04-15T01:57:54.664Z,7.01
2023-04-15T02:00:23.954Z,6.93
2023-04-15T02:02:51.499Z,7.01
2023-04-15T02:05:19.006Z,6.96
2023-04-15T02:07:46.609Z,6.80
2023-04-15T02:10:14.262Z,7.16
2023-04-15T02:12:42.028Z,6.80
2023-04-15T02:15:11.049Z,6.45
2023-04-15T02:17:39.851Z,6.23
2023-04-15T02:20:08.916Z,5.89
2023-04-15T02:22:36.404Z,5.72
2023-04-15T02:25:04.114Z,5.72
2023-04-15T02:27:32.698Z,5.86
2023-04-15T02:30:00.485Z,6.22
2023-04-15T02:32:29.019Z,6.01
2023-04-15T02:34:57.825Z,6.07
2023-04-15T02:37:27.464Z,5.88
2023-04-15T02:39:55.368Z,5.93
2023-04-15T02:42:22.807Z,5.99
2023-04-15T02:44:50.234Z,6.02
2023-04-15T02:47:17.678Z,5.95
2023-04-15T02:49:45.092Z,5.67
2023-04-15T02:52:13.942Z,5.87
2023-04-15T02:54:41.350Z,5.93
2023-04-15T02:57:08.864Z,5.93
2023-04-15T02:59:36.282Z,6.22
2023-04-15T03:02:03.796Z,6.21
2023-04-15T03:04:31.247Z,6.15
2023-04-15T03:06:58.847Z,5.92
2023-04-15T03:09:27.660Z,6.03
2023-04-15T03:11:55.081Z,6.10
2023-04-15T03:14:22.515Z,6.10
2023-04-15T03:16:50.494Z,6.31
2023-04-15T03:19:17.921Z,6.29
2023-04-15T03:21:45.577Z,6.21
2023-04-15T03:24:13.073Z,6.24
2023-04-15T03:26:41.869Z,6.32
2023-04-15T03:29:09.350Z,6.35
2023-04-15T03:31:36.910Z,6.26
2023-04-15T03:34:04.451Z,6.23
2023-04-15T03:36:33.025Z,6.62
2023-04-15T03:39:02.182Z,6.55
2023-04-15T03:41:29.921Z,6.26
2023-04-15T03:43:58.777Z,6.27
2023-04-15T03:46:26.674Z,6.25
2023-04-15T03:48:54.227Z,6.15
2023-04-15T03:51:22.167Z,6.02
2023-04-15T03:53:49.639Z,5.96
2023-04-15T03:56:17.153Z,5.81
2023-04-15T03:58:44.721Z,6.01
2023-04-15T04:01:13.561Z,6.08
2023-04-15T04:03:41.267Z,5.90
2023-04-15T04:06:09.116Z,5.82
2023-04-15T04:08:36.592Z,5.85
2023-04-15T04:11:04.266Z,5.82
2023-04-15T04:13:31.723Z,6.00
2023-04-15T04:15:59.203Z,5.75
2023-04-15T04:18:28.120Z,5.75
2023-04-15T04:20:56.123Z,5.58
2023-04-15T04:23:23.627Z,5.56
2023-04-15T04:25:51.303Z,5.69
2023-04-15T04:28:18.827Z,5.69
2023-04-15T04:30:46.331Z,5.77
2023-04-15T04:33:14.038Z,5.85
2023-04-15T04:35:42.846Z,5.56
2023-04-15T04:38:10.568Z,5.64
2023-04-15T04:40:38.102Z,5.64
2023-04-15T04:43:05.578Z,5.85
2023-04-15T04:45:33.188Z,5.70
2023-04-15T04:48:00.806Z,5.74
2023-04-15T04:50:28.344Z,5.87
2023-04-15T04:52:57.153Z,5.70
2023-04-15T04:55:24.621Z,5.59
2023-04-15T04:57:52.089Z,5.72
2023-04-15T05:00:20.270Z,5.65
2023-04-15T05:02:48.141Z,5.69
2023-04-15T05:05:16.128Z,5.71
2023-04-15T05:07:43.738Z,5.61
2023-04-15T05:10:12.897Z,5.77
2023-04-15T05:12:40.559Z,5.68
2023-04-15T05:15:09.452Z,5.63
2023-04-15T05:17:37.029Z,5.68
2023-04-15T05:20:04.951Z,5.86
2023-04-15T05:22:32.570Z,6.06
2023-04-15T05:24:59.999Z,6.09
2023-04-15T05:27:28.803Z,6.19
2023-04-15T05:29:56.579Z,6.21
2023-04-15T05:32:24.143Z,6.21
2023-04-15T05:34:52.131Z,6.20
2023-04-15T05:37:20.810Z,6.03
2023-04-15T05:39:48.273Z,6.09
2023-04-15T05:42:15.805Z,6.41
2023-04-15T05:44:44.785Z,6.52
2023-04-15T05:47:12.332Z,6.49
2023-04-15T05:49:39.805Z,6.63
2023-04-15T05:52:07.309Z,6.48
2023-04-15T05:54:34.812Z,6.29
2023-04-15T05:57:02.741Z,6.25
2023-04-15T05:59:30.899Z,6.25
2023-04-15T06:01:59.983Z,6.44
2023-04-15T06:04:27.612Z,6.33
2023-04-15T06:06:55.168Z,6.26
2023-04-15T06:09:22.804Z,6.47
2023-04-15T06:11:50.287Z,6.49
2023-04-15T06:14:17.818Z,6.59
2023-04-15T06:16:45.387Z,6.74
2023-04-15T06:19:14.216Z,6.82
2023-04-15T06:21:41.911Z,7.13
2023-04-15T06:24:09.457Z,7.61
2023-04-15T06:26:36.889Z,7.65
2023-04-15T06:29:04.344Z,7.49
2023-04-15T06:31:31.823Z,7.43
2023-04-15T06:33:59.253Z,7.48
2023-04-15T06:36:28.033Z,7.61
2023-04-15T06:38:56.472Z,7.49
2023-04-15T06:41:24.007Z,7.60
2023-04-15T06:43:51.886Z,7.46
2023-04-15T06:46:19.585Z,7.89
2023-04-15T06:48:47.313Z,7.71
2023-04-15T06:51:14.827Z,7.85
2023-04-15T06:53:43.844Z,7.93
2023-04-15T06:56:11.424Z,8.04
2023-04-15T06:58:38.945Z,7.85
2023-04-15T07:01:06.641Z,8.05
2023-04-15T07:03:35.146Z,8.06
2023-04-15T07:06:06.278Z,8.15
2023-04-15T07:08:33.832Z,8.27
2023-04-15T07:11:02.836Z,8.48
2023-04-15T07:13:32.774Z,8.49
2023-04-15T07:16:00.260Z,8.42
2023-04-15T07:18:27.782Z,8.40
2023-04-15T07:20:56.067Z,8.53
2023-04-15T07:23:23.699Z,8.56
2023-04-15T07:25:52.040Z,8.78
2023-04-15T07:28:20.833Z,8.59
2023-04-15T07:30:48.385Z,8.86
2023-04-15T07:33:15.980Z,8.82
2023-04-15T07:35:43.420Z,9.09
2023-04-15T07:38:12.610Z,9.03
2023-04-15T07:40:40.293Z,9.22
2023-04-15T07:43:07.733Z,9.39
2023-04-15T07:45:36.636Z,9.44
2023-04-15T07:48:04.418Z,9.17
2023-04-15T07:50:31.854Z,9.47
2023-04-15T07:52:59.330Z,9.58
2023-04-15T07:55:28.227Z,9.47
2023-04-15T07:57:55.778Z,9.27
2023-04-15T08:00:23.662Z,9.54
2023-04-15T08:02:53.681Z,9.41
2023-04-15T08:05:21.357Z,9.63
2023-04-15T08:07:48.952Z,9.82
2023-04-15T08:10:16.607Z,10.16
2023-04-15T08:12:44.075Z,10.10
2023-04-15T08:15:13.023Z,10.56
2023-04-15T08:17:40.524Z,10.67
2023-04-15T08:20:11.428Z,10.64
2023-04-15T08:22:38.938Z,10.57
2023-04-15T08:25:06.940Z,10.79
2023-04-15T08:27:34.446Z,11.07
2023-04-15T08:30:04.662Z,11.21
2023-04-15T08:32:32.616Z,10.89
2023-04-15T08:35:00.574Z,11.41
2023-04-15T08:37:29.346Z,11.47
2023-04-15T08:39:56.788Z,11.40
2023-04-15T08:42:31.718Z,11.68
2023-04-15T08:45:01.142Z,11.41
2023-04-15T08:47:32.367Z,11.60
2023-04-15T08:50:00.664Z,11.58
2023-04-15T08:52:32.187Z,11.64
2023-04-15T08:55:01.162Z,11.50
2023-04-15T08:57:29.584Z,11.75
2023-04-15T08:59:57.327Z,11.89
2023-04-15T09:02:26.238Z,11.76
2023-04-15T09:04:54.276Z,11.75
2023-04-15T09:07:21.816Z,11.70
2023-04-15T09:09:51.539Z,11.82
2023-04-15T09:12:19.045Z,11.86
2023-04-15T09:14:48.005Z,11.77
2023-04-15T09:17:20.447Z,11.45
2023-04-15T09:19:48.289Z,11.64
2023-04-15T09:22:16.537Z,11.74
2023-04-15T09:24:44.106Z,12.03
2023-04-15T09:27:17.069Z,11.92
2023-04-15T09:29:44.534Z,12.15
2023-04-15T09:32:13.759Z,12.15
2023-04-15T09:34:41.292Z,12.09
2023-04-15T09:37:10.776Z,11.82
2023-04-15T09:39:49.987Z,11.58
2023-04-15T09:42:24.120Z,11.68
2023-04-15T09:44:52.175Z,11.77
2023-04-15T09:47:29.138Z,11.90
2023-04-15T09:49:57.933Z,11.96
2023-04-15T09:52:25.937Z,11.86
2023-04-15T09:54:54.846Z,11.75
2023-04-15T09:57:24.610Z,11.79
2023-04-15T09:59:52.581Z,11.86
2023-04-15T10:02:21.494Z,11.76
2023-04-15T10:04:49.863Z,11.47
2023-04-15T10:07:20.449Z,11.97
2023-04-15T10:09:49.633Z,12.00
2023-04-15T10:12:18.495Z,12.06
2023-04-15T10:14:53.543Z,12.04
2023-04-15T10:17:23.807Z,11.70
2023-04-15T10:19:55.398Z,11.68
2023-04-15T10:22:23.824Z,11.96
2023-04-15T10:24:52.312Z,12.14
2023-04-15T10:27:21.998Z,12.20
2023-04-15T10:29:52.256Z,12.06
2023-04-15T10:32:21.691Z,12.33
2023-04-15T10:34:52.386Z,12.59
2023-04-15T10:37:22.712Z,12.77
2023-04-15T10:39:50.727Z,12.47
2023-04-15T10:42:20.068Z,12.60
2023-04-15T10:44:52.786Z,12.28
2023-04-15T10:47:22.008Z,12.14
2023-04-15T10:49:50.997Z,12.24
2023-04-15T10:52:23.115Z,12.41
2023-04-15T10:54:50.802Z,11.99
2023-04-15T10:57:23.265Z,11.81
2023-04-15T11:00:12.788Z,11.71
2023-04-15T11:02:42.203Z,11.52
2023-04-15T11:05:10.433Z,11.49
2023-04-15T11:07:40.081Z,11.67
2023-04-15T11:10:55.812Z,11.20
2023-04-15T11:13:31.616Z,11.08
2023-04-15T11:16:04.056Z,11.19
2023-04-15T11:18:34.132Z,11.16
2023-04-15T11:21:03.880Z,11.26
2023-04-15T11:23:34.308Z,10.81
2023-04-15T11:26:05.427Z,10.83
2023-04-15T11:28:33.893Z,10.92
2023-04-15T11:31:10.628Z,11.15
2023-04-15T11:33:38.420Z,11.23
2023-04-15T11:36:06.280Z,11.02
2023-04-15T11:38:35.468Z,11.33
2023-04-15T11:41:02.962Z,11.25
2023-04-15T11:43:35.316Z,11.33
2023-04-15T11:46:04.630Z,11.10
2023-04-15T11:48:34.933Z,11.08
2023-04-15T11:51:03.674Z,10.85
2023-04-15T11:53:39.141Z,10.35
2023-04-15T11:56:07.875Z,10.41
2023-04-15T11:58:36.049Z,10.64
2023-04-15T12:01:03.740Z,10.83
2023-04-15T12:03:37.961Z,10.95
2023-04-15T12:06:12.250Z,10.94
2023-04-15T12:08:50.697Z,11.17
2023-04-15T12:11:18.479Z,11.06
2023-04-15T12:13:48.102Z,10.77
2023-04-15T12:16:18.562Z,10.62
2023-04-15T12:18:48.207Z,10.61
2023-04-15T12:21:15.827Z,10.33
2023-04-15T12:23:49.752Z,10.24
2023-04-15T12:26:17.325Z,10.24
2023-04-15T12:28:44.869Z,10.31
2023-04-15T12:31:13.293Z,10.77
2023-04-15T12:33:40.847Z,10.88
2023-04-15T12:36:09.691Z,10.48
2023-04-15T12:38:37.135Z,10.40
2023-04-15T12:41:04.579Z,10.59
2023-04-15T12:43:32.011Z,10.59
2023-04-15T12:45:59.472Z,10.50
2023-04-15T12:48:26.919Z,10.77
2023-04-15T12:50:54.412Z,10.72
2023-04-15T12:53:23.185Z,10.45
2023-04-15T12:55:50.634Z,10.72
2023-04-15T12:58:18.091Z,11.11
2023-04-15T13:00:45.670Z,11.18
2023-04-15T13:03:13.228Z,11.03
2023-04-15T13:05:40.687Z,11.15
2023-04-15T13:08:08.252Z,11.21
2023-04-15T13:10:37.689Z,11.44
2023-04-15T13:13:05.717Z,11.25
2023-04-15T13:15:33.174Z,11.43
2023-04-15T13:18:00.901Z,11.25
2023-04-15T13:20:28.859Z,11.43
2023-04-15T13:22:56.270Z,11.47
2023-04-15T13:25:23.730Z,11.33
2023-04-15T13:27:52.682Z,11.35
2023-04-15T13:30:20.433Z,11.50
2023-04-15T13:32:50.397Z,11.07
2023-04-15T13:35:18.086Z,11.37
2023-04-15T13:37:45.523Z,11.27
2023-04-15T13:40:13.040Z,11.43
2023-04-15T13:42:40.887Z,11.38
2023-04-15T13:45:10.964Z,11.57
2023-04-15T13:47:38.595Z,11.26
2023-04-15T13:50:07.038Z,11.36
2023-04-15T13:52:34.573Z,11.44
2023-04-15T13:55:07.315Z,11.36
2023-04-15T13:57:47.475Z,11.51
2023-04-15T14:00:17.448Z,11.13
2023-04-15T14:02:45.281Z,11.31
2023-04-15T14:05:12.984Z,11.29
2023-04-15T14:07:40.788Z,11.35
2023-04-15T14:10:09.256Z,11.06
2023-04-15T14:12:36.802Z,11.25
2023-04-15T14:15:05.006Z,11.49
2023-04-15T14:17:34.344Z,11.03
2023-04-15T14:20:01.925Z,10.99
2023-04-15T14:22:29.394Z,10.73
2023-04-15T14:24:56.888Z,10.90
2023-04-15T14:27:24.410Z,11.00
2023-04-15T14:29:53.461Z,10.60
2023-04-15T14:32:21.015Z,10.72
2023-04-15T14:34:49.893Z,10.42
2023-04-15T14:37:17.356Z,10.76
2023-04-15T14:39:44.842Z,11.10
2023-04-15T14:42:12.313Z,10.40
2023-04-15T14:44:39.788Z,10.82
2023-04-15T14:47:07.343Z,10.95
2023-04-15T14:49:35.849Z,10.96
2023-04-15T14:52:04.673Z,10.78
2023-04-15T14:54:32.165Z,10.59
2023-04-15T14:56:59.644Z,10.76
2023-04-15T14:59:27.168Z,10.65
2023-04-15T15:01:54.761Z,10.56
2023-04-15T15:04:22.414Z,10.41
2023-04-15T15:06:50.002Z,10.67
2023-04-15T15:09:19.670Z,10.82
2023-04-15T15:11:47.103Z,10.80
2023-04-15T15:14:14.559Z,10.49
2023-04-15T15:16:42.034Z,10.52
2023-04-15T15:19:09.539Z,10.52
2023-04-15T15:21:37.284Z,10.16
2023-04-15T15:24:05.169Z,10.43
2023-04-15T15:26:34.046Z,10.50
2023-04-15T15:29:02.060Z,10.39
2023-04-15T15:31:29.659Z,10.03
2023-04-15T15:33:57.717Z,10.23
2023-04-15T15:36:25.151Z,9.99
2023-04-15T15:38:52.966Z,10.36
2023-04-15T15:41:21.176Z,10.28
2023-04-15T15:43:49.977Z,10.14
2023-04-15T15:46:17.499Z,10.15
2023-04-15T15:48:45.086Z,10.25
2023-04-15T15:51:12.652Z,10.32
2023-04-15T15:53:40.133Z,9.87
2023-04-15T15:56:07.632Z,10.00
2023-04-15T15:58:35.234Z,10.15
2023-04-15T16:01:04.188Z,9.93
2023-04-15T16:03:31.771Z,9.65
2023-04-15T16:05:59.471Z,9.64
2023-04-15T16:08:27.107Z,9.76
2023-04-15T16:10:54.782Z,10.06
2023-04-15T16:13:22.686Z,10.18
2023-04-15T16:15:50.900Z,9.98
2023-04-15T16:18:20.173Z,9.91
2023-04-15T16:20:47.678Z,9.96
2023-04-15T16:23:17.086Z,9.97
2023-04-15T16:25:45.782Z,9.76
2023-04-15T16:28:25.726Z,9.80
2023-04-15T16:30:54.722Z,9.75
2023-04-15T16:33:23.610Z,9.70
2023-04-15T16:35:51.884Z,9.66
2023-04-15T16:38:19.372Z,9.81
2023-04-15T16:40:46.921Z,10.07
2023-04-15T16:43:14.546Z,10.15
2023-04-15T16:45:44.226Z,10.26
2023-04-15T16:48:11.828Z,10.20
2023-04-15T16:50:40.667Z,10.35
2023-04-15T16:53:08.801Z,10.09
2023-04-15T16:55:36.274Z,9.77
2023-04-15T16:58:05.111Z,10.12
2023-04-15T17:00:36.069Z,10.28
2023-04-15T17:03:04.273Z,10.16
2023-04-15T17:05:31.907Z,10.17
2023-04-15T17:08:00.815Z,10.08
2023-04-15T17:10:28.775Z,10.15
2023-04-15T17:12:57.169Z,9.97
2023-04-15T17:15:25.066Z,10.09
2023-04-15T17:17:52.722Z,10.06
2023-04-15T17:20:20.496Z,9.65
2023-04-15T17:22:49.414Z,9.79
2023-04-15T17:25:19.309Z,9.93
2023-04-15T17:27:46.779Z,10.28
2023-04-15T17:30:14.281Z,9.99
2023-04-15T17:32:41.812Z,9.88
2023-04-15T17:35:10.279Z,9.81
2023-04-15T17:37:38.232Z,9.39
2023-04-15T17:40:08.613Z,9.43
2023-04-15T17:42:37.817Z,9.21
2023-04-15T17:45:06.164Z,9.16
2023-04-15T17:47:33.742Z,9.21
2023-04-15T17:50:01.350Z,9.08
2023-04-15T17:52:28.850Z,9.19
2023-04-15T17:54:56.450Z,9.27
2023-04-15T17:57:25.109Z,9.17
2023-04-15T17:59:54.717Z,9.20
2023-04-15T18:02:22.409Z,9.01
2023-04-15T18:04:50.346Z,9.25
2023-04-15T18:07:18.042Z,9.27
2023-04-15T18:09:45.642Z,9.19
2023-04-15T18:12:13.155Z,9.47
2023-04-15T18:14:40.783Z,9.63
2023-04-15T18:17:09.645Z,9.49
2023-04-15T18:19:37.157Z,9.60
2023-04-15T18:22:04.627Z,9.32
2023-04-15T18:24:32.098Z,9.37
2023-04-15T18:26:59.934Z,9.05
2023-04-15T18:29:27.553Z,8.96
2023-04-15T18:31:55.347Z,9.07
2023-04-15T18:34:24.208Z,9.20
2023-04-15T18:36:51.678Z,9.17
2023-04-15T18:39:19.211Z,9.39
2023-04-15T18:41:46.658Z,9.52
2023-04-15T18:44:14.124Z,9.25
2023-04-15T18:46:41.631Z,9.48
2023-04-15T18:49:09.117Z,9.54
2023-04-15T18:51:38.029Z,9.49
2023-04-15T18:54:05.586Z,9.39
2023-04-15T18:56:33.108Z,9.33
2023-04-15T18:59:08.326Z,9.56
2023-04-15T19:01:49.081Z,9.66
2023-04-15T19:04:16.648Z,9.89
2023-04-15T19:06:45.494Z,9.83
2023-04-15T19:09:13.061Z,9.53
2023-04-15T19:11:40.501Z,9.46
2023-04-15T19:14:07.970Z,9.33
2023-04-15T19:16:35.775Z,9.31
2023-04-15T19:19:03.479Z,9.46
2023-04-15T19:21:32.566Z,9.46
2023-04-15T19:24:01.579Z,9.69
2023-04-15T19:26:29.335Z,9.53
2023-04-15T19:28:58.752Z,9.70
2023-04-15T19:31:26.489Z,9.70
2023-04-15T19:33:53.965Z,9.48
2023-04-15T19:36:21.564Z,9.60
2023-04-15T19:38:49.047Z,9.80
2023-04-15T19:41:17.867Z,9.60
2023-04-15T19:43:45.338Z,9.39
2023-04-15T19:46:13.632Z,9.41
2023-04-15T19:48:41.165Z,9.49
2023-04-15T19:51:08.576Z,9.32
2023-04-15T19:53:36.005Z,9.19
2023-04-15T19:56:03.456Z,9.26
2023-04-15T19:58:32.508Z,9.11
2023-04-15T20:01:01.285Z,9.01
2023-04-15T20:03:28.968Z,9.36
2023-04-15T20:05:56.604Z,9.53
2023-04-15T20:08:24.056Z,9.35
2023-04-15T20:10:51.539Z,9.70
2023-04-15T20:13:18.979Z,9.40
2023-04-15T20:15:47.988Z,9.63
2023-04-15T20:18:15.445Z,9.48
2023-04-15T20:20:42.898Z,9.46
2023-04-15T20:23:10.371Z,9.58
2023-04-15T20:25:37.890Z,9.47
2023-04-15T20:28:05.339Z,9.38
2023-04-15T20:30:32.830Z,9.63
2023-04-15T20:33:01.632Z,9.46
2023-04-15T20:35:30.820Z,9.46
2023-04-15T20:37:58.308Z,9.49
2023-04-15T20:40:25.779Z,9.75
2023-04-15T20:42:53.236Z,9.60
2023-04-15T20:45:20.827Z,9.58
2023-04-15T20:47:48.322Z,9.62
2023-04-15T20:50:17.144Z,9.70
2023-04-15T20:52:44.671Z,9.44
2023-04-15T20:55:12.133Z,9.59
2023-04-15T20:57:39.593Z,9.76
2023-04-15T21:00:09.302Z,9.68
2023-04-15T21:02:36.878Z,9.61
2023-04-15T21:05:04.834Z,9.45
2023-04-15T21:07:33.683Z,9.55
2023-04-15T21:10:01.304Z,9.74
2023-04-15T21:12:28.792Z,9.76
2023-04-15T21:14:56.363Z,9.90
2023-04-15T21:17:23.864Z,9.95
2023-04-15T21:19:51.356Z,9.84
2023-04-15T21:22:18.844Z,9.59
2023-04-15T21:24:47.660Z,9.54
2023-04-15T21:27:15.124Z,9.32
2023-04-15T21:29:42.592Z,9.52
2023-04-15T21:32:10.383Z,9.56
2023-04-15T21:34:37.978Z,9.57
2023-04-15T21:37:05.590Z,9.58
2023-04-15T21:39:33.519Z,9.70
2023-04-15T21:42:02.698Z,9.61
2023-04-15T21:44:30.255Z,9.44
2023-04-15T21:46:57.738Z,9.45
2023-04-15T21:49:25.577Z,9.83
2023-04-15T21:51:53.126Z,9.79
2023-04-15T21:54:20.603Z,9.64
2023-04-15T21:56:49.629Z,9.70
2023-04-15T21:59:18.459Z,9.63
2023-04-15T22:01:46.127Z,9.71
2023-04-15T22:04:13.814Z,9.71
2023-04-15T22:06:41.404Z,9.69
2023-04-15T22:09:09.710Z,9.67
2023-04-15T22:11:38.832Z,9.62
2023-04-15T22:14:06.504Z,9.65
2023-04-15T22:16:35.519Z,9.89
2023-04-15T22:19:03.340Z,9.89
2023-04-15T22:21:31.828Z,9.66
2023-04-15T22:24:34.979Z,9.67
2023-04-15T22:26:46.818Z,9.76
2023-04-15T22:29:14.298Z,9.66
2023-04-15T22:31:43.212Z,9.73
2023-04-15T22:34:10.718Z,9.62
2023-04-15T22:36:38.172Z,9.52
2023-04-15T22:39:06.222Z,9.52
2023-04-15T22:41:34.068Z,9.73
2023-04-15T22:44:01.589Z,9.75
2023-04-15T22:46:29.168Z,9.66
2023-04-15T22:48:58.041Z,9.63
2023-04-15T22:51:27.805Z,9.40
2023-04-15T22:53:55.460Z,9.42
2023-04-15T22:56:23.610Z,9.42
2023-04-15T22:58:51.683Z,9.55
2023-04-15T23:01:20.693Z,9.59
2023-04-15T23:03:56.668Z,9.53
2023-04-15T23:06:29.818Z,9.66
2023-04-15T23:08:57.306Z,9.75
2023-04-15T23:11:24.789Z,9.76
2023-04-15T23:13:52.979Z,9.88
2023-04-15T23:16:20.516Z,9.85
2023-04-15T23:18:48.061Z,9.87
2023-04-15T23:21:15.651Z,9.99
2023-04-15T23:23:44.539Z,9.53
2023-04-15T23:26:12.062Z,9.42
2023-04-15T23:28:39.683Z,9.70
2023-04-15T23:31:07.527Z,9.64
2023-04-15T23:33:35.050Z,9.64
2023-04-15T23:36:02.536Z,9.59
2023-04-15T23:38:30.027Z,9.64
2023-04-15T23:40:59.467Z,9.83
2023-04-15T23:43:26.932Z,9.58
2023-04-15T23:45:54.387Z,9.38
2023-04-15T23:48:23.487Z,9.63
2023-04-15T23:50:51.027Z,9.76
2023-04-15T23:53:18.508Z,9.62
2023-04-15T23:55:45.968Z,9.63
2023-04-15T23:58:14.811Z,9.45
